Trail de Castellas - Express - 8 km


13 BELCODENE
22/04/2018 10:00:00

# Nom Prenom Temps Sexe Dossard Categ #Sexe #Categ Vit Moy Club
1 HADRZYNSKI MARC 00:33:37 M 742 M2M 1 1 14.28 TEAM MARATHONIEN
2 DOUCET NICOLAS 00:35:00 M 733 M1M 2 1 13.71 TRIATHL'AIX
3 BLANC FREDERIC 00:37:50 M 747 M1M 3 2 12.69 AIX ATHLE PROVENCE
4 GILARDEAU MICHEL 00:39:55 M 731 M2M 4 2 12.03 LA FOULEE DE GREASQUE
5 N:Anonyme 712 P:Anonyme 712 00:40:17 M 712 CAM 5 1 11.92
6 DELEBARRE CESAR 00:41:20 M 770 SEM 6 1 11.61 AIX ATHLE PROVENCE
7 RORATO EDDY 00:41:28 M 616 M1M 7 3 11.58 LES FOULEES DU LORIOT
8 ROUSSEL ELODIE 00:41:49 F 748 SEF 1 1 11.48 AIX ATHLE PROVENCE
9 COUVE BERNARD 00:43:21 M 699 M3M 8 1 11.07 ATSCAF13
10 PAVIA JEREMY 00:44:25 M 749 SEM 9 2 10.81
11 SOUTY GUILLAUME 00:45:12 M 726 SEM 10 3 10.62 .
12 MANIGEANS PATRICE 00:46:29 M 769 M1M 11 4 10.33
13 N:Anonyme 728 P:Anonyme 728 00:46:29 M 728 CAM 12 2 10.33
14 CERES ROBERT 00:46:58 M 734 M2M 13 3 10.22 LA MOTTE
15 AZAM FLORENT 00:47:21 M 667 SEM 14 4 10.14
16 MARI JB 00:47:42 M 744 M1M 15 5 10.06 .
17 GOMEZ CHRISTOPHE 00:48:42 M 741 SEM 16 5 9.86
18 BARBIER DENIS 00:49:35 M 701 M4M 17 1 9.68 OCCP LA CIOTAT
19 DEBAUCHE CHRISTOPHE 00:50:09 M 615 M2M 18 4 9.57 LA FOULEE DE GREASQUE
20 POLETTI GHISLAIN 00:50:10 M 655 SEM 19 6 9.57
21 LEFEBVRE PASCALE 00:50:15 F 658 M1F 2 1 9.55 FSGT GARDANNE
22 GARREL FLORIAN 00:50:33 M 710 JUM 20 1 9.50 .
23 CAPPETTI PIERRE 00:50:37 M 715 SEM 21 7 9.48 -
24 LOKOS STEPHANIE 00:50:41 F 722 M1F 3 2 9.47 LFA TRETS
25 MEJEAN PIERRE 00:51:07 M 750 SEM 22 8 9.39
26 COLOMBIER MICHEL 00:51:25 M 729 M3M 23 2 9.34 COLOMBIER
27 HEBTING MORGANE 00:51:26 F 617 SEF 4 2 9.33
28 FRANCAVILLA ALAIN 00:51:41 M 704 M2M 24 5 9.29 FRANCA MIKA
29 PENIN MICHAEL 00:52:03 M 707 M1M 25 6 9.22 FRANCA MIKA
30 PETTAVINO PATRICE 00:52:12 M 745 M1M 26 7 9.20
31 BARBIER VINCENT 00:52:12 M 723 M1M 27 8 9.20
32 ANDREIS LAURENCE 00:52:20 F 670 M2F 5 1 9.17 CLES GARDANNE.
33 GEORGES STEPHANE 00:52:42 M 656 M2M 28 6 9.11 1966
34 POLETTI BRIAN 00:52:49 M 657 SEM 29 9 9.09
35 REMIRES EMMANUEL 00:52:52 M 666 M1M 30 9 9.08
36 GOUNI ANNE-LAURE 00:52:54 F 713 SEF 6 3 9.07
37 KUEHN EMILIE 00:53:26 F 727 SEF 7 4 8.98
38 LUMINET MELANIE 00:53:45 F 746 M1F 8 3 8.93
39 GASCON KENZO 00:54:32 M 739 CAM 31 3 8.80
40 DELBOS PATRICK 00:54:34 M 735 M2M 32 7 8.80 LA FOULEE DE GREASQUE
41 RIVAUD ALEXIS 00:54:45 M 717 SEM 33 10 8.77 FADA
42 NICOLO PASCAL 00:54:54 M 662 SEM 34 11 8.74
43 BERNARD YOAN 00:55:33 M 689 SEM 35 12 8.64 .
44 PIRES XAVIER 00:55:46 M 711 M1M 36 10 8.61
45 PONS SYLVIA 00:55:53 F 738 M1F 9 4 8.59 LFA
46 GUIBAL FRANCOISE 00:56:42 F 683 M1F 10 5 8.47 NOUS
47 PETIT MYLENE 00:56:48 F 719 M1F 11 6 8.45 FADA
48 FRANCESCHIN BERNARD 00:57:14 M 767 M2M 37 8 8.39
49 RODRIGUEZ DELPHINE 00:57:23 F 697 M1F 12 7 8.36
50 GUIBAL EMMANUEL 00:57:32 M 682 M1M 38 11 8.34 LE LIEVRE ET LA TORTUE
51 CABONI CHRISTINE 00:57:36 F 703 M2F 13 2 8.33
52 VERLAQUE JUSTINE 00:57:36 F 700 SEF 14 5 8.33 CLES GARDANNE
53 DOYEN FRANCOISE 00:57:37 F 716 M3F 15 1 8.33
54 MATHIEU GREGORY 00:58:29 M 708 M1M 39 12 8.21
55 DEFILIPPI GERALDINE 00:58:33 F 671 SEF 16 6 8.20
56 RIVAUD GERALDINE 00:58:52 F 718 SEF 17 7 8.15 FADA
57 FRANCAVILLA LUCAS 00:59:15 F 706 MIF 18 1 8.10 FRANCA MIKA
58 JALLON THIERRY 00:59:33 M 690 M2M 40 9 8.06 .
59 BOUDEREAUX LAURENCE 00:59:48 F 743 M2F 19 3 8.03 LE LIEVRE ET LA TORTUE
60 LEMAIRE CAROLE 01:00:11 F 652 M1F 20 8 7.98
61 DAVISON CLAIRE 01:00:15 F 643 SEF 21 8 7.97
62 LAROCHE MARINE 01:00:29 F 674 SEF 22 9 7.94
63 TROUILLET VINCENT 01:00:38 M 680 SEM 41 13 7.92
64 N:Anonyme 721 P:Anonyme 721 01:00:58 F 721 M1F 23 9 7.87 LES FADAS
65 BILLARD CLEA 01:00:59 F 646 SEF 24 10 7.87
66 CLAIN CYNTHIA 01:00:59 F 648 SEF 25 11 7.87
67 BREGAINT MAURANE 01:00:59 F 647 JUF 26 1 7.87
68 N:Anonyme 698 P:Anonyme 698 01:01:04 M 698 CAM 42 4 7.86 .
69 LARDIERE FREDERIQUE 01:01:07 F 676 M1F 27 10 7.85
70 GUILMEAU STEPHANIE 01:01:07 F 677 M1F 28 11 7.85
71 BOURNE SANDRINE 01:01:10 F 737 M1F 29 12 7.85
72 TORRES VIDA 01:01:13 F 688 SEF 30 12 7.84
73 PACHECO VERONIQUE 01:01:42 F 653 M1F 31 13 7.78
74 N:Anonyme 684 P:Anonyme 684 01:02:23 F 684 SEF 32 13 7.69
75 BECCAT JEAN-MICHEL 01:02:41 M 732 M3M 43 3 7.66
76 FABRE BLANDINE 01:02:47 F 663 M1F 33 14 7.65
77 MADACI DOMINIQUE 01:02:47 M 664 M1M 44 13 7.65 SMAC
78 ROUMIEUX MARIE 01:02:58 F 709 SEF 34 14 7.62
79 TRIC VERONIQUE 01:03:39 F 693 M2F 35 4 7.54
80 POUSTOLY NINA 01:04:24 F 725 SEF 36 15 7.45 .
81 MARTINS PAULO 01:04:44 M 695 M1M 45 14 7.42 CE-PTC
82 BAILLY DAVID 01:05:26 M 691 M1M 46 15 7.34
83 GAILLARD CHRISTOPHE 01:05:40 M 685 M1M 47 16 7.31
84 GAILLARD CLAUDINE 01:05:42 F 686 SEF 37 16 7.31
85 KOVAKS JAMES 01:06:01 M 672 SEM 48 14 7.27 JGG
86 KOVAKS GAELLE 01:06:01 F 673 SEF 38 17 7.27 JGG
87 MOURGUES ISABELLE 01:06:30 F 736 SEF 39 18 7.22
88 ARTERO SEBASTIEN 01:06:31 M 714 M1M 49 17 7.22
89 VEZIN VANESSA 01:06:32 F 740 M1F 40 15 7.21 .
90 METSU ROGER 01:06:46 M 694 M2M 50 10 7.19
91 BARRIN FLORENCE 01:06:53 F 642 M2F 41 5 7.18
92 GUMB-EZEQUIEL ISALINA 01:07:15 F 665 M1F 42 16 7.14
93 AMAYENC STEPHANE 01:07:57 M 668 SEM 51 15 7.06
94 VOERMAN SEBASTIEN 01:07:59 M 678 SEM 52 16 7.06
95 N:Anonyme 687 P:Anonyme 687 01:09:22 F 687 SEF 43 19 6.92
96 N:Anonyme 681 P:Anonyme 681 01:10:17 M 681 M2M 53 11 6.83
97 BACCUET ADELINE 01:12:14 F 724 SEF 44 20 6.65
98 VAUTHIER NATHALIE 01:12:40 F 654 SEF 45 21 6.61
99 COLOMBIER BERNADETTE 01:13:53 F 730 M3F 46 2 6.50 COLOMBIER
100 TATARIS LAURE 01:14:21 F 641 SEF 47 22 6.46
101 ALBERT LEA 01:14:35 F 675 SEF 48 23 6.44
102 BERTRAND SANDRINE 01:15:01 F 644 M1F 49 17 6.40
103 BERTRAND STEPHANE 01:15:01 M 645 M1M 54 18 6.40
104 FRANCAVILLA CARLA 01:16:33 F 705 MIF 50 2 6.27 FRANCA MIKA
105 MOCCI AGNES 01:18:52 F 720 M1F 51 18 6.09 .
106 DEVOLDER LAURENCE 01:21:04 F 692 M1F 52 19 5.92
107 COQUERAN ANNICK 01:28:33 F 702 M1F 53 20 5.42
108 MACHET VINCENT 01:32:49 M 696 M1M 55 19 5.17